Time;durP1;ratioP1;P1;durP2;ratioP2;P2;SDS_P1;SDS_P2;PMS_P1;PMS_P2;Temp;Humidity;BMP_temperature;BMP_pressure;BME280_temperature;BME280_humidity;BME280_pressure;Samples;Min_cycle;Max_cycle;Signal;HPM_P1;HPM_P2
2021/10/13 00:00:10;;;;;;;32.72;26.20;;;13.40;75.40;;;;;;4976266;28;20031;-54
2021/10/13 00:02:36;;;;;;;37.47;27.33;;;13.50;75.70;;;;;;4976579;28;20038;-52
2021/10/13 00:05:02;;;;;;;38.03;29.85;;;13.50;75.60;;;;;;4991667;28;20042;-51
2021/10/13 00:07:28;;;;;;;40.53;31.48;;;13.40;75.70;;;;;;4995535;28;20070;-52
2021/10/13 00:09:54;;;;;;;46.75;35.00;;;13.50;75.80;;;;;;4995056;28;20062;-51
2021/10/13 00:12:20;;;;;;;54.00;35.13;;;13.40;75.80;;;;;;4995640;28;20399;-52
2021/10/13 00:14:45;;;;;;;45.05;30.88;;;13.40;76.00;;;;;;4989931;28;20120;-51
2021/10/13 00:17:11;;;;;;;39.53;30.33;;;13.40;75.90;;;;;;4975974;28;20063;-52
2021/10/13 00:19:36;;;;;;;44.85;33.10;;;13.40;75.90;;;;;;4975975;28;20539;-52
2021/10/13 00:22:02;;;;;;;39.65;30.05;;;13.40;75.90;;;;;;4991378;28;20077;-51
2021/10/13 00:24:28;;;;;;;41.25;31.30;;;13.40;76.00;;;;;;4995312;28;20109;-51
2021/10/13 00:26:54;;;;;;;43.60;31.85;;;13.40;76.00;;;;;;4995400;28;20026;-53
2021/10/13 00:29:20;;;;;;;41.85;31.27;;;13.40;76.00;;;;;;4995054;28;20524;-51
2021/10/13 00:31:46;;;;;;;39.63;30.98;;;13.40;76.10;;;;;;4991581;28;20022;-51
2021/10/13 00:34:11;;;;;;;41.85;32.45;;;13.40;76.10;;;;;;4992539;28;20443;-51
2021/10/13 00:36:37;;;;;;;41.42;33.00;;;13.40;76.20;;;;;;4977509;28;20022;-55
2021/10/13 00:39:03;;;;;;;34.45;27.92;;;13.40;76.30;;;;;;4989877;28;20058;-52
2021/10/13 00:41:29;;;;;;;41.10;31.33;;;13.40;76.20;;;;;;4994855;28;20030;-52
2021/10/13 00:43:54;;;;;;;43.22;30.92;;;13.40;76.10;;;;;;4994804;28;20031;-51
2021/10/13 00:46:20;;;;;;;40.95;31.17;;;13.40;76.10;;;;;;4994937;28;20030;-51
2021/10/13 00:48:45;;;;;;;41.22;31.75;;;13.40;76.10;;;;;;4994259;28;20124;-52
2021/10/13 00:51:12;;;;;;;39.03;29.95;;;13.40;76.20;;;;;;4995067;28;20022;-51
2021/10/13 00:53:38;;;;;;;43.10;31.95;;;13.40;76.20;;;;;;4994689;28;20065;-51
2021/10/13 00:56:03;;;;;;;44.42;31.65;;;13.40;76.10;;;;;;4993884;28;20022;-52
2021/10/13 00:58:29;;;;;;;39.33;30.25;;;13.40;76.20;;;;;;4994632;28;20036;-51
2021/10/13 01:01:21;;;;;;;46.60;34.78;;;13.40;76.20;;;;;;4994567;28;20352;-51
2021/10/13 01:03:58;;;;;;;41.22;33.38;;;13.40;76.30;;;;;;4994587;28;20449;-51
2021/10/13 01:07:01;;;;;;;42.85;33.05;;;13.40;76.50;;;;;;4987591;28;20023;-51
2021/10/13 01:09:35;;;;;;;45.58;33.95;;;13.40;76.50;;;;;;4983044;28;20074;-54
2021/10/13 01:12:00;;;;;;;46.28;34.55;;;13.40;76.80;;;;;;4994230;28;20073;-53
2021/10/13 01:14:45;;;;;;;43.38;32.38;;;13.40;76.90;;;;;;4994244;28;20050;-54
2021/10/13 01:17:35;;;;;;;43.30;33.70;;;13.40;76.80;;;;;;4994327;28;20081;-54
2021/10/13 01:20:17;;;;;;;42.83;31.10;;;13.40;76.80;;;;;;4994145;28;20041;-54
2021/10/13 01:23:10;;;;;;;41.22;31.90;;;13.40;76.90;;;;;;4993742;28;20033;-52
2021/10/13 01:25:57;;;;;;;40.97;31.95;;;13.40;76.80;;;;;;4994162;28;20034;-52
2021/10/13 01:28:25;;;;;;;39.50;27.13;;;13.40;76.80;;;;;;4993921;28;20084;-52
2021/10/13 01:30:56;;;;;;;34.13;26.15;;;13.40;76.60;;;;;;4994243;28;20037;-51
2021/10/13 01:33:50;;;;;;;32.72;25.98;;;13.40;76.50;;;;;;4994091;28;20018;-51
2021/10/13 01:36:23;;;;;;;31.38;24.15;;;13.40;76.10;;;;;;4948089;28;20403;-51
2021/10/13 01:38:51;;;;;;;31.42;23.98;;;13.40;76.10;;;;;;4992283;28;20462;-53
2021/10/13 01:41:18;;;;;;;29.42;23.27;;;13.30;75.90;;;;;;4993952;28;20084;-55
2021/10/13 01:43:49;;;;;;;29.10;23.05;;;13.30;75.80;;;;;;4994132;28;20403;-51
2021/10/13 01:46:21;;;;;;;33.90;24.55;;;13.30;75.80;;;;;;4993614;28;20053;-51
2021/10/13 01:48:48;;;;;;;29.60;23.33;;;13.30;75.70;;;;;;4993682;28;20105;-55
2021/10/13 01:51:15;;;;;;;32.30;22.80;;;13.30;75.70;;;;;;4993827;28;20038;-55
2021/10/13 01:53:42;;;;;;;31.67;25.35;;;13.30;75.70;;;;;;4994112;28;20015;-51
2021/10/13 01:56:09;;;;;;;32.80;25.42;;;13.30;75.80;;;;;;4977467;28;20089;-51
2021/10/13 01:58:36;;;;;;;35.28;24.63;;;13.20;75.60;;;;;;4974399;28;20061;-54
2021/10/13 02:01:03;;;;;;;29.90;23.83;;;13.20;75.60;;;;;;4974387;28;20034;-53
2021/10/13 02:03:31;;;;;;;30.95;23.45;;;13.20;75.50;;;;;;4985644;28;20041;-51
2021/10/13 02:06:00;;;;;;;31.10;25.85;;;13.20;75.50;;;;;;4993793;28;20539;-51
2021/10/13 02:08:27;;;;;;;28.05;22.33;;;13.20;75.60;;;;;;4993443;28;20121;-52
2021/10/13 02:10:55;;;;;;;31.20;23.15;;;13.20;75.50;;;;;;4990579;28;20108;-54
2021/10/13 02:13:22;;;;;;;29.13;23.60;;;13.20;75.50;;;;;;4984063;28;20033;-51
2021/10/13 02:15:50;;;;;;;32.70;24.63;;;13.20;75.40;;;;;;4993652;28;20022;-51
2021/10/13 02:18:25;;;;;;;27.20;21.50;;;13.20;75.30;;;;;;4993420;28;20066;-51
2021/10/13 02:20:53;;;;;;;33.22;23.65;;;13.30;75.40;;;;;;4995709;28;20038;-51
2021/10/13 02:23:22;;;;;;;30.60;24.17;;;13.30;75.40;;;;;;4997587;28;20130;-52
2021/10/13 02:25:50;;;;;;;27.77;21.65;;;13.30;75.30;;;;;;4997504;28;20035;-51
2021/10/13 02:28:33;;;;;;;28.20;21.77;;;13.30;75.40;;;;;;4982047;28;20042;-51
2021/10/13 02:30:58;;;;;;;28.13;22.55;;;13.30;75.20;;;;;;4977791;28;20023;-52
2021/10/13 02:33:24;;;;;;;28.02;21.15;;;13.30;75.20;;;;;;4977881;28;20023;-51
2021/10/13 02:35:51;;;;;;;27.85;20.80;;;13.30;75.20;;;;;;4977705;28;20019;-51
2021/10/13 02:38:17;;;;;;;28.48;21.98;;;13.30;75.20;;;;;;4994905;28;20022;-51
2021/10/13 02:40:43;;;;;;;24.48;18.80;;;13.30;74.80;;;;;;4996717;28;20396;-54
2021/10/13 02:43:10;;;;;;;26.80;20.63;;;13.30;74.70;;;;;;4981029;28;20045;-51
2021/10/13 02:45:38;;;;;;;23.67;19.17;;;13.30;74.70;;;;;;4977849;28;20031;-55
2021/10/13 02:48:16;;;;;;;27.20;21.40;;;13.30;74.50;;;;;;4977489;28;20023;-52
2021/10/13 02:51:03;;;;;;;25.95;20.33;;;13.20;74.50;;;;;;4977481;28;20106;-51
2021/10/13 02:53:42;;;;;;;23.70;19.98;;;13.30;74.50;;;;;;4980714;28;20505;-54
2021/10/13 02:56:22;;;;;;;25.80;19.55;;;13.20;74.40;;;;;;4988209;28;20542;-51
2021/10/13 02:58:57;;;;;;;25.92;19.88;;;13.20;74.30;;;;;;4977527;28;20475;-54
2021/10/13 03:01:28;;;;;;;24.48;19.27;;;13.20;74.40;;;;;;4976278;28;20042;-53
2021/10/13 03:03:59;;;;;;;27.05;20.92;;;13.20;74.50;;;;;;4977485;28;20030;-55
2021/10/13 03:06:36;;;;;;;27.03;21.20;;;13.20;74.60;;;;;;4977473;28;20026;-53
2021/10/13 03:09:03;;;;;;;26.00;20.10;;;13.10;74.70;;;;;;4989985;28;20342;-52
2021/10/13 03:11:30;;;;;;;23.92;18.40;;;13.10;74.80;;;;;;4996397;28;20026;-53
2021/10/13 03:13:59;;;;;;;24.38;19.05;;;13.10;74.90;;;;;;4996371;28;20030;-52
2021/10/13 03:16:27;;;;;;;26.48;18.92;;;13.10;75.00;;;;;;4985000;28;20026;-52
2021/10/13 03:18:53;;;;;;;24.27;19.60;;;13.10;75.10;;;;;;4976979;28;20386;-52
2021/10/13 03:21:20;;;;;;;26.48;20.60;;;13.10;75.20;;;;;;4977219;28;20026;-51
2021/10/13 03:23:46;;;;;;;25.02;19.90;;;13.10;75.30;;;;;;4977213;28;20538;-52
2021/10/13 03:26:14;;;;;;;24.15;19.75;;;13.00;75.30;;;;;;4977072;28;20111;-53
2021/10/13 03:28:40;;;;;;;26.05;19.88;;;13.00;75.40;;;;;;4989305;28;20097;-52
2021/10/13 03:31:07;;;;;;;26.98;20.27;;;13.00;75.50;;;;;;4996050;28;20026;-51
2021/10/13 03:33:33;;;;;;;23.83;18.67;;;13.00;75.70;;;;;;4982711;28;20053;-53
2021/10/13 03:35:59;;;;;;;25.55;20.25;;;13.00;75.60;;;;;;4976713;28;20022;-52
2021/10/13 03:38:25;;;;;;;20.70;18.33;;;13.00;75.60;;;;;;4979510;28;20035;-51
2021/10/13 03:40:50;;;;;;;23.92;20.33;;;12.90;75.60;;;;;;4991734;28;20394;-51
2021/10/13 03:43:16;;;;;;;27.45;20.55;;;12.90;75.70;;;;;;4995879;28;20343;-51
2021/10/13 03:45:42;;;;;;;24.02;18.65;;;12.90;75.70;;;;;;4995922;28;20034;-51
2021/10/13 03:48:08;;;;;;;25.85;20.73;;;12.90;75.60;;;;;;4993559;28;20030;-51
2021/10/13 03:50:33;;;;;;;24.60;19.77;;;12.90;75.70;;;;;;4976723;28;20030;-51
2021/10/13 03:52:59;;;;;;;24.98;21.10;;;12.90;75.60;;;;;;4976468;28;20102;-51
2021/10/13 03:55:25;;;;;;;22.25;18.80;;;12.90;75.80;;;;;;4976258;28;20360;-52
2021/10/13 03:57:50;;;;;;;24.55;19.42;;;12.90;75.80;;;;;;4990783;28;20485;-51
2021/10/13 04:00:19;;;;;;;25.90;20.02;;;12.90;75.90;;;;;;4995745;28;20027;-54
2021/10/13 04:02:46;;;;;;;25.85;18.70;;;12.80;75.80;;;;;;4995365;28;20026;-54
2021/10/13 04:05:12;;;;;;;27.52;19.20;;;12.80;75.90;;;;;;4995527;28;20030;-51
2021/10/13 04:07:38;;;;;;;26.33;19.70;;;12.80;75.80;;;;;;4978613;28;20031;-52
2021/10/13 04:10:06;;;;;;;24.70;20.23;;;12.80;75.90;;;;;;4978088;28;20493;-55
2021/10/13 04:12:34;;;;;;;25.40;20.10;;;12.80;75.90;;;;;;4995456;28;20030;-52
2021/10/13 04:15:00;;;;;;;24.48;20.13;;;12.80;76.00;;;;;;4995508;28;20161;-51
2021/10/13 04:17:25;;;;;;;27.65;19.38;;;12.80;76.00;;;;;;4995531;28;20117;-53
2021/10/13 04:19:51;;;;;;;25.60;20.80;;;12.80;76.10;;;;;;4995187;28;20026;-51
2021/10/13 04:22:17;;;;;;;25.55;21.13;;;12.80;76.10;;;;;;4995466;28;20026;-51
2021/10/13 04:24:42;;;;;;;26.17;20.85;;;12.80;76.10;;;;;;4994696;28;20031;-51
2021/10/13 04:27:08;;;;;;;26.70;21.77;;;12.80;76.10;;;;;;4995545;28;20105;-53
2021/10/13 04:29:34;;;;;;;27.67;21.55;;;12.80;76.00;;;;;;4994982;28;20426;-51
2021/10/13 04:31:59;;;;;;;28.27;21.80;;;12.80;76.10;;;;;;4995144;28;20029;-51
2021/10/13 04:34:25;;;;;;;28.45;21.98;;;12.80;76.00;;;;;;4995206;28;20109;-56
2021/10/13 04:36:51;;;;;;;30.83;22.75;;;12.70;76.10;;;;;;4994783;28;20081;-54
2021/10/13 04:39:16;;;;;;;26.17;22.45;;;12.80;76.10;;;;;;4988375;28;20050;-51
2021/10/13 04:41:42;;;;;;;26.38;21.10;;;12.70;76.10;;;;;;4988940;28;20080;-52
2021/10/13 04:44:08;;;;;;;28.67;21.50;;;12.80;76.10;;;;;;4991713;28;20473;-54
2021/10/13 04:46:33;;;;;;;32.78;24.13;;;12.70;76.10;;;;;;4994859;28;20030;-52
2021/10/13 04:49:02;;;;;;;30.20;24.50;;;12.70;76.10;;;;;;4994549;28;20030;-51
2021/10/13 04:51:28;;;;;;;36.10;26.73;;;12.70;76.40;;;;;;4994809;28;20030;-51
2021/10/13 04:53:53;;;;;;;32.88;26.05;;;12.70;76.50;;;;;;4994083;28;20026;-52
2021/10/13 04:56:19;;;;;;;37.35;26.88;;;12.70;76.60;;;;;;4979692;28;20453;-51
2021/10/13 04:58:44;;;;;;;34.42;27.23;;;12.70;76.40;;;;;;4994647;28;20030;-55
2021/10/13 05:01:10;;;;;;;34.67;26.90;;;12.70;76.30;;;;;;4994655;28;20030;-51
2021/10/13 05:03:37;;;;;;;36.45;27.55;;;12.70;76.00;;;;;;4994817;28;20026;-51
2021/10/13 05:06:03;;;;;;;33.05;26.63;;;12.70;76.00;;;;;;4994628;28;20403;-51
2021/10/13 05:08:28;;;;;;;34.70;26.52;;;12.60;76.00;;;;;;4993999;28;20026;-53
2021/10/13 05:10:54;;;;;;;32.53;25.73;;;12.60;76.00;;;;;;4987628;28;20107;-53
2021/10/13 05:13:20;;;;;;;32.83;26.55;;;12.60;75.90;;;;;;4982936;28;20054;-55
2021/10/13 05:15:45;;;;;;;38.30;28.60;;;12.60;75.90;;;;;;4994496;28;20414;-54
2021/10/13 05:18:11;;;;;;;31.85;27.15;;;12.60;76.20;;;;;;4991060;28;20030;-52
2021/10/13 05:20:40;;;;;;;36.83;28.05;;;12.60;76.10;;;;;;4994304;28;20034;-54
2021/10/13 05:23:06;;;;;;;35.38;26.52;;;12.60;76.10;;;;;;4993923;28;20109;-50
2021/10/13 05:25:32;;;;;;;37.33;29.95;;;12.60;76.30;;;;;;4994087;28;20137;-49
2021/10/13 05:27:58;;;;;;;40.05;29.02;;;12.60;76.40;;;;;;4990733;28;20117;-49
2021/10/13 05:30:23;;;;;;;38.53;28.63;;;12.50;76.40;;;;;;4982629;28;20375;-54
2021/10/13 05:32:49;;;;;;;36.25;28.67;;;12.50;76.40;;;;;;4985245;28;20058;-50
2021/10/13 05:35:15;;;;;;;39.72;30.52;;;12.50;76.40;;;;;;4992481;28;20432;-51
2021/10/13 05:37:40;;;;;;;41.30;30.00;;;12.40;76.60;;;;;;4990001;28;20022;-49
2021/10/13 05:40:07;;;;;;;37.45;29.17;;;12.40;76.80;;;;;;5002791;28;20046;-49
2021/10/13 05:42:32;;;;;;;40.85;30.88;;;12.30;76.90;;;;;;5004868;28;20116;-49
2021/10/13 05:44:58;;;;;;;38.38;31.25;;;12.30;76.90;;;;;;5002641;28;20418;-49
2021/10/13 05:47:24;;;;;;;35.17;30.30;;;12.20;77.00;;;;;;5010891;28;20076;-51
2021/10/13 05:49:50;;;;;;;36.78;29.17;;;12.20;77.30;;;;;;5006037;28;20029;-51
2021/10/13 05:52:16;;;;;;;40.08;29.63;;;12.20;77.60;;;;;;5005370;28;20019;-54
2021/10/13 05:54:43;;;;;;;38.20;29.98;;;12.10;77.60;;;;;;5003423;28;20030;-50
2021/10/13 05:57:08;;;;;;;38.00;30.25;;;12.10;77.80;;;;;;5003049;28;20069;-50
2021/10/13 05:59:36;;;;;;;41.38;29.70;;;12.10;77.90;;;;;;5001527;28;20026;-54
2021/10/13 06:02:02;;;;;;;37.10;28.55;;;12.10;77.80;;;;;;4997212;28;20536;-55
2021/10/13 06:04:28;;;;;;;36.35;28.98;;;12.10;77.90;;;;;;5003419;28;20030;-53
2021/10/13 06:06:53;;;;;;;35.10;26.65;;;12.10;77.90;;;;;;5005787;28;20058;-52
2021/10/13 06:09:19;;;;;;;34.95;27.55;;;12.10;78.00;;;;;;5004318;28;20101;-56
2021/10/13 06:11:44;;;;;;;40.45;28.02;;;12.00;78.00;;;;;;5001095;28;20033;-53
2021/10/13 06:14:10;;;;;;;39.65;30.05;;;12.00;78.20;;;;;;5001375;28;20061;-55
2021/10/13 06:16:36;;;;;;;35.45;28.13;;;12.00;78.20;;;;;;5000432;28;20022;-54
2021/10/13 06:19:01;;;;;;;39.17;28.77;;;12.00;78.30;;;;;;5002141;28;20030;-52
2021/10/13 06:21:27;;;;;;;35.92;28.40;;;12.00;78.40;;;;;;4996657;28;20040;-53
2021/10/13 06:23:53;;;;;;;37.97;29.08;;;12.00;78.50;;;;;;4997496;28;20109;-56
2021/10/13 06:26:21;;;;;;;36.92;28.65;;;12.00;78.50;;;;;;5000429;28;20462;-56
2021/10/13 06:28:47;;;;;;;37.72;29.50;;;12.00;78.70;;;;;;4994534;28;20056;-56
2021/10/13 06:31:12;;;;;;;36.40;28.52;;;12.00;78.70;;;;;;4997734;28;20041;-55
2021/10/13 06:33:38;;;;;;;34.58;28.55;;;12.00;78.70;;;;;;4993246;28;20034;-54
2021/10/13 06:36:07;;;;;;;38.33;29.98;;;12.00;78.90;;;;;;4996907;28;20026;-52
2021/10/13 06:38:34;;;;;;;36.13;26.98;;;12.00;78.90;;;;;;4993702;28;20053;-53
2021/10/13 06:41:00;;;;;;;38.50;28.83;;;12.00;78.90;;;;;;4978802;28;20128;-54
2021/10/13 06:43:27;;;;;;;37.63;29.73;;;12.00;78.90;;;;;;4979193;28;20034;-55
2021/10/13 06:45:53;;;;;;;33.83;28.40;;;12.00;79.00;;;;;;4980395;28;20976;-55
2021/10/13 06:48:21;;;;;;;37.05;29.05;;;12.00;79.10;;;;;;4976759;28;20034;-52
2021/10/13 06:50:47;;;;;;;43.28;30.05;;;12.00;79.10;;;;;;4976942;28;20042;-56
2021/10/13 06:53:12;;;;;;;37.78;29.30;;;12.00;79.20;;;;;;4972510;28;20442;-56
2021/10/13 06:55:38;;;;;;;38.65;29.52;;;12.00;79.20;;;;;;4972159;28;20034;-55
2021/10/13 06:58:04;;;;;;;34.50;27.85;;;12.00;79.40;;;;;;4971696;28;20564;-55
2021/10/13 07:00:30;;;;;;;35.85;28.88;;;11.90;79.40;;;;;;4974777;28;20030;-56
2021/10/13 07:02:56;;;;;;;35.55;29.00;;;11.90;79.50;;;;;;4975883;28;20379;-53
2021/10/13 07:05:22;;;;;;;35.38;26.90;;;11.90;79.50;;;;;;4968002;28;20030;-56
2021/10/13 07:07:49;;;;;;;36.33;27.63;;;11.90;79.60;;;;;;4979693;28;20530;-54
2021/10/13 07:10:17;;;;;;;33.78;27.02;;;11.90;79.60;;;;;;4977341;28;20427;-53
2021/10/13 07:12:43;;;;;;;36.33;28.33;;;11.90;79.60;;;;;;4978753;28;20030;-53
2021/10/13 07:15:09;;;;;;;36.08;26.65;;;11.90;79.70;;;;;;4966706;28;20390;-54
2021/10/13 07:17:35;;;;;;;32.88;27.23;;;11.90;79.70;;;;;;4973716;28;20427;-56
2021/10/13 07:20:04;;;;;;;30.05;25.60;;;11.80;79.70;;;;;;4970157;28;20038;-55
2021/10/13 07:22:31;;;;;;;36.90;27.05;;;11.80;79.90;;;;;;4974789;28;20034;-54
2021/10/13 07:24:57;;;;;;;33.53;26.05;;;11.80;79.90;;;;;;4968624;28;20149;-54
2021/10/13 07:27:24;;;;;;;34.03;25.45;;;11.80;79.90;;;;;;4972926;28;20072;-53
2021/10/13 07:29:57;;;;;;;32.72;25.23;;;11.80;80.00;;;;;;4969961;28;20034;-55
2021/10/13 07:32:24;;;;;;;29.35;23.73;;;11.80;80.00;;;;;;4975437;28;20035;-56
2021/10/13 07:34:50;;;;;;;31.42;25.00;;;11.80;80.10;;;;;;4969716;28;20097;-54
2021/10/13 07:37:16;;;;;;;30.75;23.83;;;11.80;80.20;;;;;;4975617;28;20027;-56
2021/10/13 07:39:42;;;;;;;33.45;24.00;;;11.80;80.00;;;;;;4972698;28;20050;-54
2021/10/13 07:42:07;;;;;;;30.02;24.45;;;11.80;80.10;;;;;;4974636;28;20049;-55
2021/10/13 07:44:33;;;;;;;29.67;23.23;;;11.80;80.10;;;;;;4977681;28;20045;-52
2021/10/13 07:46:59;;;;;;;30.00;23.25;;;11.80;80.20;;;;;;4973556;28;20030;-55
2021/10/13 07:49:24;;;;;;;27.30;22.58;;;11.80;80.10;;;;;;4968239;28;20054;-56
2021/10/13 07:51:50;;;;;;;27.83;22.58;;;11.80;80.10;;;;;;4973620;28;20027;-53
2021/10/13 07:54:16;;;;;;;27.95;22.83;;;11.80;80.20;;;;;;4972409;28;20137;-55
2021/10/13 07:56:42;;;;;;;27.92;22.75;;;11.80;80.20;;;;;;4972464;28;20038;-56
2021/10/13 07:59:08;;;;;;;27.85;22.08;;;11.80;80.30;;;;;;4972903;28;20030;-55
2021/10/13 08:01:33;;;;;;;29.95;23.20;;;11.80;80.40;;;;;;4963437;28;20459;-55
2021/10/13 08:04:01;;;;;;;31.45;22.10;;;11.80;80.40;;;;;;4971962;28;20065;-55
2021/10/13 08:06:27;;;;;;;24.92;21.15;;;11.80;80.40;;;;;;4973465;28;20092;-55
2021/10/13 08:08:53;;;;;;;26.13;21.33;;;11.80;80.40;;;;;;4973541;28;20650;-52
2021/10/13 08:11:19;;;;;;;23.60;20.38;;;11.80;80.40;;;;;;4972521;28;20037;-54
2021/10/13 08:13:45;;;;;;;27.40;21.08;;;11.80;80.40;;;;;;4971529;28;20461;-52
2021/10/13 08:16:11;;;;;;;25.55;20.48;;;11.80;80.40;;;;;;4975602;28;20367;-56
2021/10/13 08:18:37;;;;;;;27.15;20.27;;;11.70;80.40;;;;;;4975367;28;20491;-54
2021/10/13 08:21:03;;;;;;;25.27;20.85;;;11.70;80.50;;;;;;4970599;28;20050;-56
2021/10/13 08:23:28;;;;;;;26.58;20.10;;;11.70;80.60;;;;;;4969589;28;20077;-54
2021/10/13 08:25:59;;;;;;;23.13;19.63;;;11.70;80.60;;;;;;4974356;28;20026;-56
2021/10/13 08:28:25;;;;;;;23.67;19.83;;;11.70;80.80;;;;;;4959397;28;20153;-55
2021/10/13 08:30:51;;;;;;;24.90;19.23;;;11.70;80.80;;;;;;4962067;28;20033;-55
2021/10/13 08:33:16;;;;;;;22.15;18.73;;;11.70;80.90;;;;;;4971943;28;20030;-55
2021/10/13 08:35:42;;;;;;;23.35;18.92;;;11.70;80.90;;;;;;4968346;28;20092;-56
2021/10/13 08:38:08;;;;;;;22.33;17.83;;;11.70;81.10;;;;;;4969065;28;20092;-55
2021/10/13 08:40:34;;;;;;;22.13;18.30;;;11.70;80.90;;;;;;4966905;28;20050;-56
2021/10/13 08:43:02;;;;;;;23.40;18.60;;;11.70;81.10;;;;;;4972660;28;20027;-55
2021/10/13 08:45:30;;;;;;;22.27;19.10;;;11.70;81.10;;;;;;4975044;28;20038;-56
2021/10/13 08:47:56;;;;;;;22.38;17.20;;;11.70;81.00;;;;;;4976136;28;20034;-54
2021/10/13 08:50:23;;;;;;;23.52;18.60;;;11.70;81.00;;;;;;4974031;28;20026;-56
2021/10/13 08:52:53;;;;;;;23.63;18.85;;;11.70;81.10;;;;;;4968589;28;20781;-55
2021/10/13 08:55:19;;;;;;;24.67;19.15;;;11.80;81.10;;;;;;4972330;28;20030;-55
2021/10/13 08:57:45;;;;;;;24.63;19.25;;;11.80;81.20;;;;;;4964902;28;20034;-55
2021/10/13 09:00:21;;;;;;;23.33;18.23;;;11.80;81.10;;;;;;4964963;28;20045;-55
2021/10/13 09:02:47;;;;;;;23.00;19.23;;;11.80;81.20;;;;;;4975817;28;20108;-55
2021/10/13 09:05:20;;;;;;;21.08;17.75;;;11.80;81.30;;;;;;4977823;28;20121;-56
2021/10/13 09:07:49;;;;;;;21.65;17.85;;;11.70;81.20;;;;;;4976090;28;20038;-54
2021/10/13 09:10:34;;;;;;;21.95;18.48;;;11.80;81.20;;;;;;4969825;28;20104;-55
2021/10/13 09:13:10;;;;;;;25.63;19.40;;;11.80;81.30;;;;;;4964565;28;20113;-55
2021/10/13 09:15:36;;;;;;;24.58;18.27;;;11.80;81.40;;;;;;4969376;28;20190;-55
2021/10/13 09:18:05;;;;;;;21.60;17.73;;;11.80;81.30;;;;;;4971513;28;20034;-55
2021/10/13 09:20:35;;;;;;;20.52;17.50;;;11.80;81.30;;;;;;4971355;28;20042;-55
2021/10/13 09:23:05;;;;;;;23.23;18.17;;;11.80;81.30;;;;;;4975580;28;20128;-53
2021/10/13 09:25:33;;;;;;;21.50;18.08;;;11.80;81.30;;;;;;4969967;28;20539;-58
2021/10/13 09:28:00;;;;;;;21.95;17.95;;;11.80;81.40;;;;;;4969762;28;21088;-54
2021/10/13 09:30:36;;;;;;;20.95;17.50;;;11.80;81.50;;;;;;4968756;28;20038;-54
2021/10/13 09:33:16;;;;;;;21.90;17.98;;;11.80;81.30;;;;;;4973340;28;21409;-54
2021/10/13 09:35:43;;;;;;;22.70;18.20;;;11.80;81.40;;;;;;4975201;28;20115;-54
2021/10/13 09:38:12;;;;;;;20.20;17.90;;;11.80;81.50;;;;;;4966439;28;20129;-55
2021/10/13 09:40:38;;;;;;;22.27;17.30;;;11.80;81.60;;;;;;4968847;28;20082;-53
2021/10/13 09:43:04;;;;;;;20.45;17.92;;;11.80;81.50;;;;;;4973210;28;20122;-55
2021/10/13 09:45:31;;;;;;;18.90;16.13;;;11.80;81.50;;;;;;4964204;28;20034;-54
2021/10/13 09:48:04;;;;;;;20.35;17.20;;;11.80;81.60;;;;;;4970909;28;20113;-55
2021/10/13 09:50:47;;;;;;;19.73;16.85;;;11.70;81.60;;;;;;4964015;28;20042;-54
2021/10/13 09:53:15;;;;;;;22.50;17.58;;;11.70;81.70;;;;;;4963193;28;20039;-53
2021/10/13 09:55:43;;;;;;;20.52;16.95;;;11.70;81.70;;;;;;4965989;28;20026;-56
2021/10/13 09:58:34;;;;;;;19.77;16.50;;;11.70;81.60;;;;;;4970256;28;20038;-55
2021/10/13 10:01:08;;;;;;;20.50;16.63;;;11.70;81.60;;;;;;4970894;28;20030;-55
2021/10/13 10:03:36;;;;;;;19.05;16.25;;;11.70;81.70;;;;;;4974697;28;20030;-55
2021/10/13 10:06:02;;;;;;;19.48;16.25;;;11.70;81.80;;;;;;4972325;28;20031;-55
2021/10/13 10:08:28;;;;;;;20.88;16.45;;;11.70;81.80;;;;;;4973238;28;20052;-52
2021/10/13 10:11:00;;;;;;;18.48;16.05;;;11.70;81.90;;;;;;4970941;28;20031;-53
2021/10/13 10:13:42;;;;;;;20.98;16.73;;;11.70;81.90;;;;;;4976721;28;20038;-55
2021/10/13 10:16:10;;;;;;;18.42;15.88;;;11.70;81.90;;;;;;4975924;28;20034;-55
2021/10/13 10:18:38;;;;;;;19.50;16.42;;;11.70;82.00;;;;;;4971146;28;20081;-55
2021/10/13 10:21:17;;;;;;;17.95;15.90;;;11.70;82.00;;;;;;4968082;28;20039;-55
2021/10/13 10:23:43;;;;;;;18.73;16.70;;;11.70;81.80;;;;;;4969773;28;20030;-54
2021/10/13 10:26:24;;;;;;;19.60;17.20;;;11.70;82.10;;;;;;4967277;28;20118;-53
2021/10/13 10:28:50;;;;;;;19.50;15.40;;;11.70;81.90;;;;;;4959627;28;20034;-55
2021/10/13 10:31:28;;;;;;;17.05;15.18;;;11.60;82.10;;;;;;4960034;28;20040;-54
2021/10/13 10:34:02;;;;;;;18.20;15.50;;;11.60;81.90;;;;;;4963990;28;20022;-54
2021/10/13 10:36:48;;;;;;;20.58;15.52;;;11.60;82.00;;;;;;4970606;28;20423;-55
2021/10/13 10:39:16;;;;;;;17.92;14.73;;;11.60;82.10;;;;;;4961760;28;20140;-53
2021/10/13 10:41:43;;;;;;;17.52;15.18;;;11.60;82.30;;;;;;4975460;28;20046;-53
2021/10/13 10:44:29;;;;;;;16.88;14.95;;;11.60;82.30;;;;;;4960360;28;20062;-55
2021/10/13 10:47:04;;;;;;;16.45;14.05;;;11.60;82.20;;;;;;4967196;28;20165;-55
2021/10/13 10:49:55;;;;;;;17.70;14.43;;;11.50;82.30;;;;;;4972510;28;20178;-55
2021/10/13 10:52:25;;;;;;;15.77;14.07;;;11.60;82.30;;;;;;4971305;28;20038;-56
2021/10/13 10:55:08;;;;;;;16.77;14.25;;;11.50;82.40;;;;;;4976296;28;20038;-53
2021/10/13 10:57:53;;;;;;;16.05;14.07;;;11.50;82.50;;;;;;4967322;28;20058;-55
2021/10/13 11:00:21;;;;;;;16.25;13.82;;;11.50;82.70;;;;;;4971751;28;20665;-55
2021/10/13 11:02:51;;;;;;;14.57;13.00;;;11.50;82.80;;;;;;4963888;28;20034;-55
2021/10/13 11:05:21;;;;;;;16.13;14.45;;;11.50;82.80;;;;;;4970189;28;20031;-52
2021/10/13 11:07:48;;;;;;;18.38;14.40;;;11.50;82.80;;;;;;4975646;28;20072;-55
2021/10/13 11:10:14;;;;;;;16.25;13.93;;;11.50;82.80;;;;;;4973276;28;20481;-53
2021/10/13 11:12:57;;;;;;;18.38;15.98;;;11.50;82.90;;;;;;4976313;28;22877;-56
2021/10/13 11:15:25;;;;;;;16.98;14.73;;;11.40;82.80;;;;;;4973475;28;20110;-56
2021/10/13 11:17:51;;;;;;;17.23;13.68;;;11.40;83.00;;;;;;4976893;28;20543;-54
2021/10/13 11:20:22;;;;;;;16.75;14.95;;;11.40;83.70;;;;;;4974036;28;20138;-56
2021/10/13 11:23:04;;;;;;;19.05;14.75;;;11.40;83.20;;;;;;4977847;28;21028;-52
2021/10/13 11:25:30;;;;;;;16.60;14.68;;;11.40;83.30;;;;;;4974708;28;20038;-55
2021/10/13 11:28:11;;;;;;;18.75;15.60;;;11.40;83.40;;;;;;4977338;28;20034;-55
2021/10/13 11:30:42;;;;;;;16.05;14.35;;;11.30;84.00;;;;;;4971644;28;20494;-55
2021/10/13 11:33:10;;;;;;;18.52;14.18;;;11.30;83.50;;;;;;4970978;28;20030;-54
2021/10/13 11:35:36;;;;;;;18.92;16.13;;;11.30;83.50;;;;;;4960261;28;20134;-55
2021/10/13 11:38:02;;;;;;;16.80;15.00;;;11.30;83.60;;;;;;4968089;28;20022;-57
2021/10/13 11:40:29;;;;;;;16.92;15.00;;;11.30;83.80;;;;;;4969740;28;20050;-55
2021/10/13 11:43:00;;;;;;;18.05;14.70;;;11.30;83.90;;;;;;4963039;28;20039;-55
2021/10/13 11:45:26;;;;;;;16.77;14.65;;;11.30;84.00;;;;;;4968765;28;20674;-58
2021/10/13 11:47:52;;;;;;;16.52;13.93;;;11.30;83.80;;;;;;4969645;28;20046;-55
2021/10/13 11:50:20;;;;;;;17.30;14.77;;;11.40;84.10;;;;;;4974166;28;20401;-54
2021/10/13 11:52:57;;;;;;;17.33;14.02;;;11.30;83.90;;;;;;4970022;28;20022;-57
2021/10/13 11:55:29;;;;;;;18.13;14.18;;;11.40;84.00;;;;;;4968762;28;20141;-56
2021/10/13 11:58:00;;;;;;;15.25;13.65;;;11.40;84.20;;;;;;4971198;28;20054;-53
2021/10/13 12:00:31;;;;;;;18.43;14.43;;;11.40;84.10;;;;;;4967836;28;20466;-55
2021/10/13 12:03:04;;;;;;;17.33;13.75;;;11.30;84.10;;;;;;4967505;28;20283;-53
2021/10/13 12:05:44;;;;;;;16.65;13.80;;;11.40;84.20;;;;;;4968649;28;20457;-56
2021/10/13 12:08:17;;;;;;;15.80;13.88;;;11.40;84.10;;;;;;4966190;28;20027;-55
2021/10/13 12:10:54;;;;;;;15.15;13.55;;;11.40;84.30;;;;;;4966126;28;20065;-55
2021/10/13 12:13:28;;;;;;;16.33;13.70;;;11.40;84.40;;;;;;4967903;28;20113;-55
2021/10/13 12:16:04;;;;;;;13.80;12.35;;;11.40;84.50;;;;;;4970073;28;20032;-55
2021/10/13 12:18:37;;;;;;;13.98;12.48;;;11.40;84.40;;;;;;4974062;28;20027;-53
2021/10/13 12:21:03;;;;;;;15.48;12.52;;;11.40;84.50;;;;;;4973471;28;20548;-54
2021/10/13 12:23:30;;;;;;;14.55;12.75;;;11.40;84.60;;;;;;4972934;28;20022;-55
2021/10/13 12:25:57;;;;;;;15.68;13.30;;;11.40;84.70;;;;;;4968629;28;20023;-54
2021/10/13 12:28:26;;;;;;;13.93;12.43;;;11.40;84.70;;;;;;4968428;28;20035;-56
2021/10/13 12:31:24;;;;;;;14.85;13.25;;;11.50;84.60;;;;;;4965914;28;20736;-54
2021/10/13 12:33:52;;;;;;;13.45;12.02;;;11.50;84.50;;;;;;4965172;28;20217;-56
2021/10/13 12:36:23;;;;;;;14.27;12.77;;;11.50;84.50;;;;;;4972712;28;20551;-50